Time;durP1;ratioP1;P1;durP2;ratioP2;P2;SDS_P1;SDS_P2;PMS_P1;PMS_P2;Temp;Humidity;BMP_temperature;BMP_pressure;BME280_temperature;BME280_humidity;BME280_pressure;Samples;Min_cycle;Max_cycle;Signal;HPM_P1;HPM_P2
2022/11/12 00:01:59;;;;;;;21.15;13.52;;;;;;;9.55;77.13;101377.16;4284174;33;34237;-71
2022/11/12 00:04:45;;;;;;;23.30;14.18;;;;;;;9.65;77.24;101375.72;4274444;33;34596;-72
2022/11/12 00:07:31;;;;;;;20.92;13.73;;;;;;;9.15;79.73;101366.09;4275463;33;33565;-73
2022/11/12 00:10:17;;;;;;;23.62;13.45;;;;;;;9.51;79.04;101379.41;4278607;33;33971;-73
2022/11/12 00:13:03;;;;;;;20.25;13.05;;;;;;;9.60;78.98;101375.47;4288700;33;34288;-71
2022/11/12 00:15:49;;;;;;;25.30;14.50;;;;;;;9.93;77.62;101368.50;4289534;33;33988;-71
2022/11/12 00:18:34;;;;;;;23.77;14.63;;;;;;;9.96;77.33;101363.50;4288566;33;33226;-71
2022/11/12 00:21:20;;;;;;;21.52;14.57;;;;;;;10.07;76.72;101373.75;4289704;33;33889;-71
2022/11/12 00:24:06;;;;;;;20.77;14.05;;;;;;;10.09;76.72;101362.72;4289420;33;33989;-73
2022/11/12 00:26:52;;;;;;;20.80;13.77;;;;;;;9.89;77.18;101367.25;4289493;33;33932;-73
2022/11/12 00:29:37;;;;;;;23.52;13.65;;;;;;;10.07;76.62;101357.47;4289676;33;34321;-73
2022/11/12 00:32:23;;;;;;;22.20;14.45;;;;;;;10.05;76.72;101354.12;4277591;33;33890;-72
2022/11/12 00:35:11;;;;;;;20.35;14.45;;;;;;;10.01;77.02;101360.19;4274535;33;34187;-72
2022/11/12 00:37:59;;;;;;;22.55;14.85;;;;;;;9.82;78.11;101364.50;4274973;33;33988;-71
2022/11/12 00:40:45;;;;;;;23.33;13.85;;;;;;;9.72;77.79;101364.06;4274007;33;33161;-71
2022/11/12 00:43:32;;;;;;;21.15;13.50;;;;;;;10.07;77.25;101359.37;4274130;33;35828;-71
2022/11/12 00:46:17;;;;;;;24.42;14.32;;;;;;;9.81;77.95;101355.56;4289427;33;34954;-73
2022/11/12 00:49:03;;;;;;;21.42;13.75;;;;;;;10.08;77.33;101350.19;4303591;33;34072;-72
2022/11/12 00:51:49;;;;;;;20.65;13.50;;;;;;;10.07;77.73;101340.38;4289589;33;33496;-74
2022/11/12 00:54:35;;;;;;;25.45;15.50;;;;;;;10.35;76.25;101337.53;4278312;33;34119;-73
2022/11/12 00:57:21;;;;;;;26.30;15.20;;;;;;;9.95;78.09;101337.44;4289106;33;34050;-73
2022/11/12 01:00:07;;;;;;;22.60;14.82;;;;;;;9.69;78.70;101337.38;4289195;33;33961;-70
2022/11/12 01:02:53;;;;;;;22.15;14.70;;;;;;;10.04;77.71;101341.63;4289006;33;34270;-71
2022/11/12 01:05:39;;;;;;;21.98;14.27;;;;;;;9.82;78.53;101348.25;4278132;33;34894;-72
2022/11/12 01:08:24;;;;;;;20.02;13.57;;;;;;;10.22;76.35;101341.03;4302173;33;35040;-71
2022/11/12 01:11:15;;;;;;;19.70;13.25;;;;;;;10.51;75.42;101332.72;4303197;33;33650;-71
2022/11/12 01:14:04;;;;;;;20.62;13.70;;;;;;;10.56;74.95;101336.47;4303547;33;33560;-75
2022/11/12 01:16:50;;;;;;;21.50;13.68;;;;;;;10.11;76.51;101338.94;4291647;33;34769;-73
2022/11/12 01:19:35;;;;;;;19.87;13.00;;;;;;;10.47;75.33;101326.84;4303052;33;34043;-73
2022/11/12 01:22:22;;;;;;;21.90;13.65;;;;;;;10.58;74.53;101320.81;4299323;33;34683;-74
2022/11/12 01:25:08;;;;;;;22.45;12.93;;;;;;;10.39;75.48;101325.22;4288905;33;33386;-73
2022/11/12 01:27:53;;;;;;;19.65;13.57;;;;;;;10.45;74.92;101323.53;4288509;33;34016;-72
2022/11/12 01:30:39;;;;;;;21.92;13.93;;;;;;;10.45;74.85;101307.25;4283032;33;34335;-74
2022/11/12 01:33:25;;;;;;;23.95;14.05;;;;;;;10.06;76.35;101306.16;4289645;33;33973;-72
2022/11/12 01:36:13;;;;;;;22.48;13.38;;;;;;;10.00;77.17;101301.56;4302125;33;33692;-73
2022/11/12 01:38:59;;;;;;;21.75;14.73;;;;;;;9.94;77.08;101315.97;4279188;33;34112;-73
2022/11/12 01:41:45;;;;;;;23.85;14.75;;;;;;;10.12;75.62;101301.78;4277401;33;34689;-72
2022/11/12 01:44:33;;;;;;;22.13;15.10;;;;;;;10.10;76.20;101303.88;4275182;33;33535;-72
2022/11/12 01:47:32;;;;;;;22.58;14.18;;;;;;;9.69;78.08;101305.69;4294150;33;34570;-73
2022/11/12 01:50:30;;;;;;;22.20;14.77;;;;;;;9.98;76.83;101306.38;4291969;33;33229;-73
2022/11/12 01:53:16;;;;;;;22.17;13.73;;;;;;;9.81;77.15;101303.22;4288652;33;34336;-73
2022/11/12 01:56:03;;;;;;;22.02;14.35;;;;;;;10.20;75.82;101310.56;4285015;33;34057;-72
2022/11/12 01:58:54;;;;;;;20.40;13.90;;;;;;;10.14;75.44;101305.97;4294019;33;33408;-73
2022/11/12 02:01:41;;;;;;;19.70;13.62;;;;;;;9.66;77.63;101300.69;4289564;33;34101;-72
2022/11/12 02:04:27;;;;;;;21.87;13.68;;;;;;;10.21;75.62;101309.50;4290604;33;34059;-74
2022/11/12 02:07:13;;;;;;;21.15;13.73;;;;;;;9.10;80.02;101304.44;4289813;33;34817;-73
2022/11/12 02:10:01;;;;;;;21.73;14.40;;;;;;;9.95;76.66;101312.19;4290561;33;33410;-73
2022/11/12 02:15:53;;;;;;;21.30;13.93;;;;;;;10.53;72.96;101303.50;4292839;33;34177;-72
2022/11/12 02:18:38;;;;;;;25.50;15.10;;;;;;;10.73;72.04;101296.12;4294081;33;33801;-73
2022/11/12 02:21:25;;;;;;;20.98;14.13;;;;;;;10.56;72.52;101289.47;4304305;33;34311;-73
2022/11/12 02:24:11;;;;;;;20.25;14.13;;;;;;;10.51;72.59;101289.28;4293893;33;34054;-73
2022/11/12 02:26:57;;;;;;;23.50;14.70;;;;;;;10.43;72.60;101279.47;4304925;33;35188;-73
2022/11/12 02:29:46;;;;;;;21.83;14.77;;;;;;;9.97;74.91;101280.28;4299534;33;34608;-73
2022/11/12 02:32:32;;;;;;;25.37;13.85;;;;;;;10.14;74.33;101272.59;4277153;33;32485;-73
2022/11/12 02:35:18;;;;;;;22.37;14.50;;;;;;;10.00;74.12;101277.16;4290180;33;34052;-73
2022/11/12 02:38:04;;;;;;;20.95;14.75;;;;;;;9.53;75.68;101277.09;4290446;33;34239;-73
2022/11/12 02:40:50;;;;;;;21.35;14.27;;;;;;;9.45;76.27;101272.69;4277112;33;33415;-73
2022/11/12 02:43:36;;;;;;;22.37;14.43;;;;;;;9.21;77.28;101275.94;4293250;33;33637;-71
2022/11/12 02:46:22;;;;;;;20.73;14.68;;;;;;;9.64;75.67;101281.91;4304743;33;34935;-74
2022/11/12 02:49:08;;;;;;;23.75;14.50;;;;;;;9.60;75.67;101277.09;4280273;33;33889;-73
2022/11/12 02:51:54;;;;;;;24.58;14.93;;;;;;;9.48;76.01;101285.00;4290457;33;34220;-73
2022/11/12 02:54:40;;;;;;;20.35;14.38;;;;;;;9.72;75.35;101294.44;4290569;33;33691;-73
2022/11/12 02:57:26;;;;;;;23.35;15.60;;;;;;;9.52;75.92;101291.66;4289706;33;33967;-73
2022/11/12 03:00:12;;;;;;;28.35;18.00;;;;;;;9.36;76.31;101289.34;4279139;33;32987;-73
2022/11/12 03:02:58;;;;;;;29.05;17.50;;;;;;;8.92;77.24;101293.28;4291876;33;34747;-70
2022/11/12 03:05:45;;;;;;;26.90;17.62;;;;;;;8.74;78.12;101288.41;4304458;33;33283;-74
2022/11/12 03:08:31;;;;;;;24.90;16.55;;;;;;;9.02;76.95;101289.19;4293388;33;34004;-73
2022/11/12 03:11:17;;;;;;;25.73;16.48;;;;;;;9.13;76.48;101286.94;4293028;33;35103;-72
2022/11/12 03:14:03;;;;;;;25.02;16.58;;;;;;;9.34;75.31;101288.69;4303999;33;34776;-71
2022/11/12 03:16:49;;;;;;;22.95;15.73;;;;;;;9.31;75.24;101283.66;4293602;33;34009;-73
2022/11/12 03:19:35;;;;;;;24.75;16.85;;;;;;;9.16;75.45;101281.13;4297095;33;33894;-73
2022/11/12 03:22:21;;;;;;;29.35;17.52;;;;;;;9.09;75.42;101278.38;4290275;33;34167;-73
2022/11/12 03:25:08;;;;;;;26.62;16.83;;;;;;;8.90;76.61;101290.81;4276728;33;33170;-71
2022/11/12 03:28:03;;;;;;;27.13;17.00;;;;;;;9.01;76.16;101284.81;4278699;33;34402;-74
2022/11/12 03:30:49;;;;;;;32.05;18.42;;;;;;;8.88;76.39;101290.16;4276853;33;33358;-73
2022/11/12 03:33:35;;;;;;;27.60;17.50;;;;;;;8.84;76.95;101291.59;4290003;33;34276;-71
2022/11/12 03:36:20;;;;;;;27.33;16.77;;;;;;;9.02;76.06;101285.63;4278482;33;34904;-73
2022/11/12 03:39:06;;;;;;;27.33;17.58;;;;;;;9.35;74.67;101285.78;4293477;33;33770;-73
2022/11/12 03:41:52;;;;;;;27.95;16.83;;;;;;;8.93;75.37;101286.84;4304516;33;34834;-72
2022/11/12 03:44:38;;;;;;;27.52;17.08;;;;;;;9.58;73.06;101293.56;4304313;33;33914;-73
2022/11/12 03:47:24;;;;;;;28.67;17.33;;;;;;;8.94;75.07;101296.62;4304477;33;34090;-73
2022/11/12 03:50:11;;;;;;;26.80;16.98;;;;;;;8.71;76.60;101297.75;4304323;33;34511;-73
2022/11/12 03:52:58;;;;;;;29.40;18.40;;;;;;;9.52;73.44;101304.37;4290743;33;33815;-74
2022/11/12 03:55:44;;;;;;;27.85;17.62;;;;;;;9.51;72.28;101297.31;4276635;33;33465;-71
2022/11/12 03:58:30;;;;;;;24.83;17.30;;;;;;;8.66;76.02;101300.22;4299735;33;33865;-73
2022/11/12 04:01:16;;;;;;;26.95;18.20;;;;;;;9.26;73.54;101302.41;4303009;33;34211;-73
2022/11/12 04:04:03;;;;;;;28.52;16.85;;;;;;;9.12;74.18;101301.53;4303960;33;34002;-73
2022/11/12 04:09:53;;;;;;;25.60;15.63;;;;;;;9.31;73.48;101305.34;4298190;33;33671;-73
2022/11/12 04:15:43;;;;;;;27.08;16.05;;;;;;;9.00;74.57;101303.94;4304245;33;33748;-73
2022/11/12 04:21:55;;;;;;;24.83;16.42;;;;;;;9.58;71.76;101298.16;4303969;33;33727;-73
2022/11/12 04:27:46;;;;;;;26.02;16.83;;;;;;;9.00;73.74;101293.94;4300444;33;34848;-73
2022/11/12 04:30:31;;;;;;;23.33;15.93;;;;;;;8.77;74.13;101280.72;4303769;33;34115;-73
2022/11/12 04:33:17;;;;;;;23.12;15.68;;;;;;;9.23;72.48;101282.00;4303911;33;34516;-71
2022/11/12 04:36:03;;;;;;;24.58;16.98;;;;;;;9.40;71.43;101271.63;4303993;33;33770;-73
2022/11/12 04:38:49;;;;;;;22.30;15.50;;;;;;;9.23;71.90;101272.00;4303709;33;33995;-73
2022/11/12 04:47:45;;;;;;;;;;;;;;;8.45;75.03;101284.06;4287671;33;33486;-73
2022/11/12 04:50:31;;;;;;;22.92;15.13;;;;;;;8.25;75.11;101282.00;4294551;33;34808;-71
2022/11/12 04:53:16;;;;;;;23.80;15.85;;;;;;;8.23;74.78;101281.37;4290303;33;33485;-74
2022/11/12 04:56:02;;;;;;;25.98;15.75;;;;;;;8.59;73.70;101283.94;4292033;33;34678;-71
2022/11/12 04:58:48;;;;;;;25.15;16.90;;;;;;;8.80;71.86;101287.59;4293289;33;33384;-72
2022/11/12 05:01:34;;;;;;;25.42;16.15;;;;;;;8.82;71.01;101282.84;4268020;33;33868;-72
2022/11/12 05:04:20;;;;;;;23.42;15.80;;;;;;;8.28;72.87;101278.06;4288689;33;34335;-73
2022/11/12 05:07:06;;;;;;;25.73;17.55;;;;;;;8.07;74.02;101277.06;4288893;33;33998;-73
2022/11/12 05:09:52;;;;;;;24.00;16.00;;;;;;;7.63;75.18;101291.59;4265727;33;32452;-73
2022/11/12 05:12:38;;;;;;;23.50;15.77;;;;;;;7.58;75.41;101286.78;4275611;33;32862;-70
2022/11/12 05:15:24;;;;;;;27.27;16.10;;;;;;;7.23;76.46;101293.00;4288624;33;34047;-70
2022/11/12 05:18:10;;;;;;;24.80;15.48;;;;;;;7.69;75.13;101295.38;4277774;33;34714;-69
2022/11/12 05:20:56;;;;;;;23.67;15.68;;;;;;;8.13;73.06;101295.19;4298982;33;33444;-72
2022/11/12 05:23:42;;;;;;;25.95;15.88;;;;;;;8.08;72.77;101294.97;4305229;33;33876;-72
2022/11/12 05:26:29;;;;;;;24.83;15.82;;;;;;;7.69;74.48;101293.56;4284364;33;35071;-73
2022/11/12 05:29:15;;;;;;;25.27;16.42;;;;;;;7.81;73.73;101283.88;4280012;33;34884;-71
2022/11/12 05:32:01;;;;;;;27.05;17.12;;;;;;;7.46;75.20;101300.97;4279652;33;34660;-72
2022/11/12 05:34:47;;;;;;;30.92;18.10;;;;;;;7.47;75.16;101298.06;4277607;33;34232;-73
2022/11/12 05:37:33;;;;;;;30.62;17.95;;;;;;;7.79;74.28;101304.84;4279685;33;35158;-84
2022/11/12 05:40:19;;;;;;;30.15;18.20;;;;;;;8.13;71.93;101305.19;4291797;33;34905;-73
2022/11/12 05:43:04;;;;;;;29.55;18.50;;;;;;;8.24;70.89;101299.25;4290847;33;33614;-73
2022/11/12 05:45:50;;;;;;;26.08;16.67;;;;;;;8.19;70.89;101301.72;4290607;33;33945;-73
2022/11/12 05:48:36;;;;;;;27.80;16.58;;;;;;;7.81;72.47;101301.97;4279308;33;34319;-71
2022/11/12 05:51:22;;;;;;;26.23;16.90;;;;;;;7.84;72.69;101289.94;4290785;33;34801;-73
2022/11/12 05:54:08;;;;;;;26.23;16.62;;;;;;;7.78;73.28;101300.50;4290334;33;33401;-71
2022/11/12 05:56:53;;;;;;;27.25;17.20;;;;;;;7.45;74.75;101299.28;4279572;33;34556;-71
2022/11/12 05:59:39;;;;;;;26.37;16.95;;;;;;;7.30;75.51;101308.28;4290734;33;34239;-72
2022/11/12 06:02:25;;;;;;;27.23;16.80;;;;;;;7.68;74.32;101312.63;4290612;33;33958;-73
2022/11/12 06:05:11;;;;;;;24.05;16.62;;;;;;;7.49;74.87;101317.63;4290668;33;33678;-72
2022/11/12 06:07:57;;;;;;;22.83;15.48;;;;;;;7.75;74.29;101322.50;4279370;33;34891;-72
2022/11/12 06:10:48;;;;;;;24.30;15.60;;;;;;;7.88;74.07;101321.78;4281659;33;34120;-74
2022/11/12 06:13:33;;;;;;;25.20;16.50;;;;;;;8.03;73.33;101316.31;4291847;33;33223;-71
2022/11/12 06:16:19;;;;;;;28.90;16.83;;;;;;;8.22;72.43;101323.78;4304775;33;33552;-73
2022/11/12 06:19:05;;;;;;;24.23;16.52;;;;;;;7.82;73.68;101327.97;4300812;33;34844;-70
2022/11/12 06:21:50;;;;;;;24.12;17.00;;;;;;;7.55;74.74;101330.38;4287965;33;34246;-71
2022/11/12 06:24:37;;;;;;;27.55;16.90;;;;;;;7.63;74.62;101334.81;4303468;33;34052;-72
2022/11/12 06:27:23;;;;;;;27.27;17.80;;;;;;;7.43;75.73;101331.91;4278487;33;33033;-68
2022/11/12 06:30:09;;;;;;;27.67;18.25;;;;;;;7.42;75.80;101350.97;4290557;33;33980;-75
2022/11/12 06:32:55;;;;;;;30.37;19.00;;;;;;;7.46;76.04;101349.59;4279383;33;34007;-71
2022/11/12 06:35:41;;;;;;;26.20;16.95;;;;;;;7.70;75.38;101353.81;4290516;33;33874;-75
2022/11/12 06:38:29;;;;;;;28.48;19.73;;;;;;;8.00;74.08;101352.69;4291069;33;33542;-74
2022/11/12 06:41:15;;;;;;;28.08;18.90;;;;;;;7.77;75.45;101363.66;4292899;33;33981;-77
2022/11/12 06:44:03;;;;;;;29.12;19.60;;;;;;;7.93;74.35;101362.59;4295126;33;34421;-71
2022/11/12 06:46:49;;;;;;;29.50;19.05;;;;;;;7.76;75.14;101370.09;4290420;33;34111;-70
2022/11/12 06:49:36;;;;;;;28.52;19.42;;;;;;;8.14;74.23;101371.72;4292168;33;33575;-72
2022/11/12 06:52:22;;;;;;;25.70;18.75;;;;;;;8.16;74.46;101369.66;4298386;33;34590;-74
2022/11/12 06:55:08;;;;;;;29.17;20.20;;;;;;;7.93;75.38;101380.69;4304058;33;35094;-73
2022/11/12 06:57:53;;;;;;;29.42;21.55;;;;;;;8.30;74.30;101366.06;4293469;33;33887;-72
2022/11/12 07:00:40;;;;;;;28.62;20.67;;;;;;;8.10;75.29;101368.59;4303128;33;33427;-69
2022/11/12 07:03:25;;;;;;;29.35;19.60;;;;;;;8.56;73.56;101367.38;4299470;33;33772;-76
2022/11/12 07:06:13;;;;;;;30.10;20.98;;;;;;;8.32;74.07;101369.41;4304798;33;34147;-75
2022/11/12 07:08:59;;;;;;;29.65;20.12;;;;;;;8.32;74.49;101369.41;4292567;33;34028;-69
2022/11/12 07:11:45;;;;;;;30.02;21.00;;;;;;;8.42;73.76;101369.09;4304696;33;33220;-78
2022/11/12 07:14:31;;;;;;;29.92;20.55;;;;;;;8.88;72.32;101370.53;4293747;33;34025;-74
2022/11/12 07:17:17;;;;;;;29.42;20.50;;;;;;;8.46;74.84;101377.69;4304453;33;34863;-74
2022/11/12 07:20:03;;;;;;;36.15;23.77;;;;;;;7.81;76.84;101391.97;4267005;33;34248;-74
2022/11/12 07:22:48;;;;;;;35.30;23.83;;;;;;;7.85;78.31;101392.44;4298848;33;33574;-74
2022/11/12 07:25:34;;;;;;;37.80;24.37;;;;;;;8.17;76.95;101393.00;4304351;33;34586;-73
2022/11/12 07:28:20;;;;;;;38.55;24.20;;;;;;;7.85;79.23;101386.19;4296880;33;34330;-74
2022/11/12 07:31:08;;;;;;;32.78;24.23;;;;;;;8.31;77.85;101386.66;4295527;33;34529;-74
2022/11/12 07:33:54;;;;;;;35.00;22.60;;;;;;;8.72;76.22;101387.88;4293627;33;34315;-74
2022/11/12 07:36:40;;;;;;;36.55;24.08;;;;;;;9.08;75.10;101397.72;4304636;33;34098;-73
2022/11/12 07:39:26;;;;;;;34.97;23.30;;;;;;;9.25;74.81;101390.97;4304092;33;34020;-74
2022/11/12 07:42:12;;;;;;;32.03;21.50;;;;;;;9.74;73.35;101384.53;4304376;33;33948;-74
2022/11/12 07:44:57;;;;;;;31.77;20.60;;;;;;;10.00;71.94;101382.91;4292780;33;31929;-81
2022/11/12 07:47:43;;;;;;;33.15;21.33;;;;;;;10.14;72.06;101381.06;4289754;33;34078;-77
2022/11/12 07:50:29;;;;;;;30.95;20.60;;;;;;;10.13;72.50;101382.09;4291406;33;34149;-80
2022/11/12 07:53:15;;;;;;;28.30;19.02;;;;;;;10.49;71.73;101379.03;4303864;33;33809;-74
2022/11/12 07:56:03;;;;;;;30.90;19.70;;;;;;;10.51;71.76;101381.56;4302943;33;33616;-76
2022/11/12 07:58:49;;;;;;;27.77;19.33;;;;;;;10.95;70.63;101380.06;4289880;33;34927;-76
2022/11/12 08:01:39;;;;;;;33.92;21.00;;;;;;;11.50;69.75;101378.66;4279047;33;34679;-77
2022/11/12 08:04:25;;;;;;;31.75;19.77;;;;;;;11.65;67.63;101385.72;4279485;33;33857;-75
2022/11/12 08:07:11;;;;;;;33.00;19.40;;;;;;;12.14;66.95;101391.56;4292696;33;33635;-75
2022/11/12 08:09:57;;;;;;;29.50;20.08;;;;;;;10.94;71.87;101400.13;4301764;33;34081;-76
2022/11/12 08:12:43;;;;;;;30.40;20.00;;;;;;;11.87;67.17;101405.28;4302936;33;34029;-79
2022/11/12 08:15:29;;;;;;;32.95;21.27;;;;;;;12.09;67.79;101408.53;4300029;33;34361;-73
2022/11/12 08:18:15;;;;;;;29.05;18.52;;;;;;;12.51;64.74;101409.75;4301227;33;33742;-76
2022/11/12 08:21:03;;;;;;;30.58;19.73;;;;;;;11.72;68.93;101407.44;4291538;33;34935;-77
2022/11/12 08:23:49;;;;;;;26.65;17.83;;;;;;;12.39;67.54;101410.66;4290569;33;33542;-82
2022/11/12 08:26:34;;;;;;;27.02;16.40;;;;;;;12.27;68.54;101407.81;4304081;33;33807;-78
2022/11/12 08:29:22;;;;;;;26.70;16.23;;;;;;;12.79;66.41;101410.37;4304052;33;33666;-76
2022/11/12 08:32:08;;;;;;;28.02;16.65;;;;;;;12.57;67.40;101413.47;4302250;33;34592;-75
2022/11/12 08:34:53;;;;;;;24.55;15.43;;;;;;;12.29;68.44;101406.53;4278523;33;34055;-76
2022/11/12 08:37:39;;;;;;;29.37;16.50;;;;;;;12.47;68.64;101403.06;4289439;33;33623;-75
2022/11/12 08:40:26;;;;;;;23.45;15.10;;;;;;;12.17;69.66;101399.31;4296403;33;33368;-75
2022/11/12 08:43:12;;;;;;;27.95;16.52;;;;;;;12.40;68.86;101406.91;4303600;33;34774;-75
2022/11/12 08:45:59;;;;;;;29.70;17.40;;;;;;;11.95;70.03;101420.56;4292135;33;35812;-77
2022/11/12 08:48:46;;;;;;;29.40;17.70;;;;;;;11.74;70.76;101413.50;4301736;33;34121;-76
2022/11/12 08:51:32;;;;;;;31.05;18.25;;;;;;;11.68;71.83;101412.47;4303247;33;33627;-75
2022/11/12 08:54:17;;;;;;;28.00;16.75;;;;;;;11.55;71.88;101420.69;4303579;33;34768;-75
2022/11/12 08:57:03;;;;;;;34.05;21.45;;;;;;;11.45;71.71;101418.44;4305087;33;33826;-75
2022/11/12 08:59:49;;;;;;;31.92;19.10;;;;;;;11.52;71.61;101419.22;4304575;33;33960;-76
2022/11/12 09:02:35;;;;;;;29.52;18.23;;;;;;;11.34;72.76;101435.38;4284534;33;33623;-76
2022/11/12 09:05:21;;;;;;;34.42;20.27;;;;;;;11.32;72.80;101435.59;4289993;33;33752;-75
2022/11/12 09:08:12;;;;;;;33.50;18.30;;;;;;;11.75;70.70;101436.91;4302357;33;34207;-76
2022/11/12 09:10:58;;;;;;;32.97;19.85;;;;;;;11.64;71.59;101438.41;4293650;33;34801;-76
2022/11/12 09:13:44;;;;;;;31.77;19.55;;;;;;;11.63;70.97;101447.63;4305094;33;34692;-77
2022/11/12 09:16:30;;;;;;;32.20;19.65;;;;;;;11.15;72.58;101445.25;4304405;33;34000;-75
2022/11/12 09:19:16;;;;;;;28.87;19.02;;;;;;;11.24;72.89;101447.50;4305081;33;34920;-75
2022/11/12 09:22:03;;;;;;;31.20;19.40;;;;;;;11.05;73.36;101449.19;4303886;33;34111;-75
2022/11/12 09:24:49;;;;;;;34.10;19.80;;;;;;;11.47;72.27;101455.22;4293504;33;33383;-75
2022/11/12 09:27:35;;;;;;;31.55;19.45;;;;;;;11.14;73.14;101460.69;4305031;33;33940;-76
2022/11/12 09:30:21;;;;;;;32.20;19.62;;;;;;;11.30;72.27;101462.16;4305171;33;35025;-77
2022/11/12 09:33:07;;;;;;;32.10;19.37;;;;;;;11.23;72.57;101467.59;4304931;33;33863;-76
2022/11/12 09:35:53;;;;;;;35.72;21.48;;;;;;;10.82;74.37;101471.37;4304254;33;33479;-76
2022/11/12 09:38:39;;;;;;;34.53;21.25;;;;;;;11.27;72.83;101471.56;4299196;33;34917;-80
2022/11/12 09:41:31;;;;;;;33.22;20.37;;;;;;;11.48;71.98;101480.50;4293188;33;34224;-74
2022/11/12 09:44:19;;;;;;;34.53;21.83;;;;;;;11.29;73.68;101477.63;4304580;33;34107;-74
2022/11/12 09:47:23;;;;;;;32.55;20.90;;;;;;;11.09;73.79;101474.06;4304081;33;33500;-76
2022/11/12 09:50:17;;;;;;;32.65;20.75;;;;;;;11.26;73.87;101471.75;4304479;33;34833;-76
2022/11/12 09:53:18;;;;;;;29.48;19.73;;;;;;;11.46;73.20;101474.44;4293320;33;34315;-76
2022/11/12 09:56:07;;;;;;;31.65;20.85;;;;;;;11.53;72.16;101469.00;4287288;33;34729;-76
2022/11/12 09:58:53;;;;;;;31.58;20.23;;;;;;;11.59;71.90;101474.41;4279377;33;32933;-75
2022/11/12 10:01:58;;;;;;;40.83;25.42;;;;;;;11.17;73.79;101473.03;4279475;33;33448;-77
2022/11/12 10:05:16;;;;;;;36.53;21.65;;;;;;;11.41;72.14;101472.38;4278348;33;34010;-75
2022/11/12 10:08:38;;;;;;;31.17;20.33;;;;;;;11.66;71.86;101480.69;4279115;33;34922;-75
2022/11/12 10:18:31;;;;;;;34.60;19.75;;;;;;;11.87;72.24;101484.97;4284439;33;35019;-75
2022/11/12 10:21:23;;;;;;;33.15;18.77;;;;;;;11.66;72.92;101482.53;4292257;33;34375;-72
2022/11/12 10:24:09;;;;;;;29.25;19.20;;;;;;;12.51;70.25;101487.87;4302616;33;33443;-71
2022/11/12 10:26:56;;;;;;;29.12;17.45;;;;;;;12.96;68.33;101476.00;4284336;33;34434;-70
2022/11/12 10:29:52;;;;;;;25.42;17.77;;;;;;;12.77;68.95;101475.13;4289121;33;35063;-73
2022/11/12 10:32:41;;;;;;;26.35;17.05;;;;;;;12.82;68.68;101473.38;4276217;33;34152;-72
2022/11/12 10:35:29;;;;;;;30.52;17.37;;;;;;;12.85;69.07;101472.09;4277959;33;33554;-69
2022/11/12 10:38:21;;;;;;;26.65;16.65;;;;;;;12.58;69.59;101469.59;4288645;33;33616;-69
2022/11/12 10:41:19;;;;;;;28.48;18.08;;;;;;;13.26;66.00;101463.38;4278213;33;33846;-71
2022/11/12 10:44:06;;;;;;;25.98;15.98;;;;;;;13.12;67.25;101461.81;4286639;33;34787;-69
2022/11/12 10:47:17;;;;;;;28.67;16.25;;;;;;;13.19;65.96;101459.88;4280967;33;33347;-70
2022/11/12 10:50:09;;;;;;;26.65;16.12;;;;;;;12.22;69.81;101451.16;4277423;33;34727;-70
2022/11/12 10:52:59;;;;;;;24.50;15.48;;;;;;;12.69;69.24;101452.53;4289182;33;34705;-70
2022/11/12 10:55:57;;;;;;;26.15;16.55;;;;;;;13.78;63.74;101452.16;4278067;33;34763;-69
2022/11/12 10:58:43;;;;;;;25.95;16.10;;;;;;;13.69;64.94;101446.16;4277585;33;34237;-70
2022/11/12 11:01:30;;;;;;;26.33;16.55;;;;;;;13.42;65.50;101447.53;4287421;33;33649;-69
2022/11/12 11:04:30;;;;;;;28.15;15.55;;;;;;;14.02;63.14;101446.81;4292454;33;34910;-70
2022/11/12 11:07:20;;;;;;;26.08;16.48;;;;;;;13.90;63.83;101444.84;4292441;33;34908;-71
2022/11/12 11:10:26;;;;;;;26.83;16.35;;;;;;;13.68;64.64;101449.12;4292201;33;34875;-70
2022/11/12 11:13:21;;;;;;;24.87;15.77;;;;;;;13.65;65.40;101446.84;4302058;33;34455;-70
2022/11/12 11:16:11;;;;;;;24.52;16.55;;;;;;;14.68;61.07;101437.66;4279871;33;33884;-72
2022/11/12 11:19:08;;;;;;;25.83;16.08;;;;;;;13.37;65.70;101434.56;4277573;33;33901;-72
2022/11/12 11:22:03;;;;;;;23.00;14.75;;;;;;;14.29;63.14;101436.34;4277996;33;34190;-70
2022/11/12 11:24:58;;;;;;;27.13;17.20;;;;;;;14.49;60.62;101433.31;4280655;33;86302;-71
2022/11/12 11:28:07;;;;;;;27.33;16.20;;;;;;;15.17;59.61;101432.03;4303378;33;33897;-78
2022/11/12 11:31:00;;;;;;;23.17;14.45;;;;;;;14.82;59.83;101426.53;4290399;33;33584;-71
2022/11/12 11:34:07;;;;;;;23.55;15.38;;;;;;;15.29;59.06;101426.53;4272494;33;32543;-71
2022/11/12 11:37:19;;;;;;;24.92;16.20;;;;;;;15.06;59.50;101430.13;4303199;33;34803;-72
2022/11/12 11:40:11;;;;;;;22.23;14.63;;;;;;;14.79;60.05;101424.28;4291200;33;35050;-80
2022/11/12 11:43:21;;;;;;;26.12;15.98;;;;;;;14.95;60.57;101429.87;4303144;33;33786;-71
2022/11/12 11:46:16;;;;;;;24.80;15.95;;;;;;;15.32;59.47;101428.81;4303128;33;33245;-69
2022/11/12 11:49:16;;;;;;;21.20;13.75;;;;;;;14.51;62.60;101426.59;4290657;33;34573;-72
2022/11/12 11:52:33;;;;;;;21.30;13.80;;;;;;;15.10;59.50;101426.66;4288875;33;34206;-73
2022/11/12 11:55:41;;;;;;;30.15;16.35;;;;;;;15.52;58.28;101429.25;4298252;33;34728;-77
2022/11/12 11:58:52;;;;;;;21.10;13.65;;;;;;;14.66;61.00;101415.22;4303133;33;34554;-74
2022/11/12 12:01:57;;;;;;;24.33;13.93;;;;;;;14.94;60.17;101408.25;4302532;33;33919;-75
2022/11/12 12:04:51;;;;;;;20.73;13.05;;;;;;;15.36;58.47;101419.06;4303966;33;33851;-73
2022/11/12 12:07:48;;;;;;;23.80;12.23;;;;;;;15.15;58.40;101406.81;4291418;33;34197;-74
2022/11/12 12:10:53;;;;;;;19.95;11.98;;;;;;;15.18;57.20;101406.31;4277329;33;34883;-73
2022/11/12 12:14:14;;;;;;;17.90;11.12;;;;;;;15.79;56.68;101404.94;4303996;33;33531;-73
2022/11/12 12:17:16;;;;;;;19.70;12.00;;;;;;;15.79;56.26;101407.69;4303622;33;35014;-74
2022/11/12 12:20:13;;;;;;;19.42;11.80;;;;;;;15.99;55.37;101400.94;4294071;33;34048;-73
2022/11/12 12:23:03;;;;;;;20.25;12.57;;;;;;;16.33;53.96;101390.91;4277395;33;33364;-73
2022/11/12 12:25:51;;;;;;;19.90;13.43;;;;;;;15.50;56.52;101395.81;4280655;33;34740;-71
2022/11/12 12:29:11;;;;;;;25.55;15.30;;;;;;;15.11;58.79;101381.03;4282067;33;35088;-72
2022/11/12 12:32:19;;;;;;;22.42;14.82;;;;;;;16.07;55.21;101386.88;4291510;33;34677;-72
2022/11/12 12:35:20;;;;;;;26.25;15.70;;;;;;;15.81;57.13;101388.28;4289038;33;33954;-73
2022/11/12 12:38:17;;;;;;;29.23;17.33;;;;;;;14.93;60.18;101388.28;4279920;33;33963;-73
2022/11/12 12:41:26;;;;;;;26.20;16.83;;;;;;;15.66;58.29;101388.78;4291090;33;34239;-72
2022/11/12 12:44:12;;;;;;;27.23;16.90;;;;;;;15.08;59.82;101386.97;4291791;33;34016;-73
2022/11/12 12:46:59;;;;;;;29.48;16.70;;;;;;;14.70;61.23;101388.28;4291389;33;34455;-73
2022/11/12 12:49:46;;;;;;;28.77;17.37;;;;;;;14.75;61.47;101381.03;4302680;33;33758;-73
2022/11/12 12:52:59;;;;;;;25.05;15.23;;;;;;;14.80;60.68;101385.78;4285247;33;35037;-79
2022/11/12 12:55:49;;;;;;;24.00;15.45;;;;;;;14.76;61.38;101381.88;4290934;33;33735;-78
2022/11/12 12:58:47;;;;;;;27.33;16.17;;;;;;;15.23;59.49;101383.75;4289120;33;32760;-78
2022/11/12 13:01:34;;;;;;;26.67;15.27;;;;;;;15.13;59.58;101387.09;4301756;33;33579;-79
2022/11/12 13:04:51;;;;;;;26.80;15.00;;;;;;;15.54;58.04;101377.84;4291274;33;35042;-74
2022/11/12 13:07:39;;;;;;;24.17;15.40;;;;;;;14.14;64.84;101379.44;4289207;33;34820;-80
2022/11/12 13:10:40;;;;;;;24.87;15.75;;;;;;;14.40;62.03;101382.84;4283916;33;34635;-80
2022/11/12 13:13:29;;;;;;;28.45;15.18;;;;;;;14.14;63.15;101383.00;4281609;33;34441;-80
2022/11/12 13:16:46;;;;;;;26.92;16.90;;;;;;;14.40;62.42;101386.41;4290868;33;34210;-77
2022/11/12 13:19:38;;;;;;;25.77;16.83;;;;;;;14.65;62.98;101379.97;4274132;33;34057;-78
2022/11/12 13:22:23;;;;;;;25.05;16.98;;;;;;;14.69;61.69;101375.69;4290010;33;33579;-74
2022/11/12 13:25:09;;;;;;;25.88;16.20;;;;;;;14.76;61.37;101374.50;4301661;33;34472;-73